createdAt,value
2017-07-30T00:07:59.000Z,23.88
2017-07-30T00:17:59.000Z,23.87
2017-07-30T00:27:59.000Z,23.86
2017-07-30T00:37:59.000Z,23.85
2017-07-30T00:47:59.000Z,23.83
2017-07-30T00:57:59.000Z,23.82
2017-07-30T01:08:00.000Z,23.84
2017-07-30T01:18:00.000Z,23.83
2017-07-30T01:28:00.000Z,23.83
2017-07-30T01:38:00.000Z,23.82
2017-07-30T01:48:00.000Z,23.81
2017-07-30T01:58:00.000Z,23.8
2017-07-30T02:08:00.000Z,23.78
2017-07-30T02:18:00.000Z,23.76
2017-07-30T02:28:00.000Z,23.74
2017-07-30T02:38:00.000Z,23.73
2017-07-30T02:48:00.000Z,23.73
2017-07-30T02:58:00.000Z,23.71
2017-07-30T03:08:00.000Z,23.7
2017-07-30T03:18:00.000Z,23.69
2017-07-30T03:28:00.000Z,23.69
2017-07-30T03:38:00.000Z,23.68
2017-07-30T03:48:00.000Z,23.67
2017-07-30T03:58:01.000Z,23.66
2017-07-30T04:08:00.000Z,23.64
2017-07-30T04:18:00.000Z,23.63
2017-07-30T04:28:00.000Z,23.63
2017-07-30T04:38:00.000Z,23.63
2017-07-30T04:48:00.000Z,23.62
2017-07-30T04:58:00.000Z,23.62
2017-07-30T05:08:00.000Z,23.63
2017-07-30T05:18:00.000Z,23.63
2017-07-30T05:28:00.000Z,23.65
2017-07-30T05:48:00.000Z,23.68
2017-07-30T05:58:00.000Z,23.7
2017-07-30T06:08:00.000Z,23.73
2017-07-30T06:18:00.000Z,23.78
2017-07-30T06:28:00.000Z,23.84
2017-07-30T06:38:00.000Z,23.89
2017-07-30T06:48:00.000Z,23.98
2017-07-30T06:58:00.000Z,24.06
2017-07-30T07:08:00.000Z,24.15
2017-07-30T07:18:00.000Z,24.2
2017-07-30T07:28:00.000Z,24.2
2017-07-30T07:38:00.000Z,24.28
2017-07-30T07:48:01.000Z,24.4
2017-07-30T07:58:00.000Z,24.38
2017-07-30T08:08:00.000Z,24.38
2017-07-30T08:18:00.000Z,24.47
2017-07-30T08:28:00.000Z,24.4
2017-07-30T08:38:00.000Z,24.43
2017-07-30T08:48:01.000Z,24.47
2017-07-30T08:58:00.000Z,24.65
2017-07-30T09:08:00.000Z,24.54
2017-07-30T09:18:00.000Z,24.56
2017-07-30T09:28:00.000Z,24.58
2017-07-30T09:38:01.000Z,24.65
2017-07-30T09:48:01.000Z,24.99
2017-07-30T09:58:01.000Z,25.08
2017-07-30T10:08:01.000Z,24.99
2017-07-30T10:18:01.000Z,25.03
2017-07-30T10:28:01.000Z,25.17
2017-07-30T10:38:01.000Z,25.12
2017-07-30T10:48:01.000Z,25.17
2017-07-30T10:58:01.000Z,25.31
2017-07-30T11:08:03.000Z,25.41
2017-07-30T11:18:01.000Z,25.62
2017-07-30T11:28:01.000Z,25.63
2017-07-30T11:38:01.000Z,25.76
2017-07-30T11:48:01.000Z,25.94
2017-07-30T11:58:01.000Z,26.05
2017-07-30T12:08:01.000Z,26.21
2017-07-30T12:18:01.000Z,26.15
2017-07-30T12:28:01.000Z,26.26
2017-07-30T12:38:01.000Z,26.27
2017-07-30T12:48:01.000Z,26.31
2017-07-30T12:58:01.000Z,26.36
2017-07-30T13:08:01.000Z,26.26
2017-07-30T13:18:01.000Z,26.25
2017-07-30T13:28:01.000Z,26.34
2017-07-30T13:38:01.000Z,26.35
2017-07-30T13:48:01.000Z,26.25
2017-07-30T13:58:01.000Z,26.14
2017-07-30T14:08:01.000Z,26.23
2017-07-30T14:18:01.000Z,26.16
2017-07-30T14:28:01.000Z,26.15
2017-07-30T14:48:01.000Z,26.04
2017-07-30T14:58:01.000Z,25.98
2017-07-30T15:08:01.000Z,26.02
2017-07-30T15:18:01.000Z,26.08
2017-07-30T15:28:01.000Z,26.03
2017-07-30T15:38:01.000Z,26.13
2017-07-30T15:48:01.000Z,26.1
2017-07-30T15:58:01.000Z,26.12
2017-07-30T16:08:01.000Z,26.04
2017-07-30T16:18:01.000Z,26.04
2017-07-30T16:28:01.000Z,25.74
2017-07-30T16:38:01.000Z,25.7
2017-07-30T16:48:02.000Z,25.76
2017-07-30T16:58:01.000Z,25.56
2017-07-30T17:08:01.000Z,25.62
2017-07-30T17:18:02.000Z,25.49
2017-07-30T17:28:01.000Z,25.45
2017-07-30T17:38:01.000Z,25.65
2017-07-30T17:48:01.000Z,25.55
2017-07-30T17:58:01.000Z,25.36
2017-07-30T18:08:02.000Z,25.36
2017-07-30T18:18:02.000Z,25.12
2017-07-30T18:28:02.000Z,25.05
2017-07-30T18:38:02.000Z,25.08
2017-07-30T18:48:02.000Z,25.03
2017-07-30T18:58:02.000Z,25.14
2017-07-30T19:08:02.000Z,25.17
2017-07-30T19:18:02.000Z,25.01
2017-07-30T19:28:02.000Z,25.13
2017-07-30T19:38:02.000Z,25.03
2017-07-30T19:48:02.000Z,25.01
2017-07-30T19:58:02.000Z,25.04
2017-07-30T20:08:03.000Z,25.05
2017-07-30T20:28:02.000Z,24.91
2017-07-30T20:38:02.000Z,24.92
2017-07-30T20:48:02.000Z,24.92
2017-07-30T20:58:02.000Z,25.05
2017-07-30T21:08:03.000Z,25
2017-07-30T21:18:02.000Z,24.99
2017-07-30T21:28:02.000Z,25
2017-07-30T21:38:02.000Z,24.93
2017-07-30T21:48:02.000Z,24.85
2017-07-30T21:58:02.000Z,24.88
2017-07-30T22:08:02.000Z,24.78
2017-07-30T22:18:02.000Z,24.78
2017-07-30T22:28:02.000Z,24.62
2017-07-30T22:38:02.000Z,24.67
2017-07-30T22:48:05.000Z,24.22
2017-07-30T23:08:02.000Z,24.23
2017-07-30T23:18:02.000Z,24.11
2017-07-30T23:28:02.000Z,24.35
2017-07-30T23:38:02.000Z,24.35
2017-07-30T23:48:02.000Z,24.34
2017-07-30T23:58:03.000Z,24.34
